sensor_id;sensor_type;location;lat;lon;timestamp;temperature;humidity
41427;DHT22;27171;51.812;19.514;2022-09-27T00:02:49;10.00;99.90
41427;DHT22;27171;51.812;19.514;2022-09-27T00:06:01;10.00;99.90
41427;DHT22;27171;51.812;19.514;2022-09-27T00:09:02;10.10;99.90
41427;DHT22;27171;51.812;19.514;2022-09-27T00:12:04;10.20;99.90
41427;DHT22;27171;51.812;19.514;2022-09-27T00:15:06;10.20;99.90
41427;DHT22;27171;51.812;19.514;2022-09-27T00:18:07;10.30;99.90
41427;DHT22;27171;51.812;19.514;2022-09-27T00:21:11;10.30;99.90
41427;DHT22;27171;51.812;19.514;2022-09-27T00:24:13;10.30;99.90
41427;DHT22;27171;51.812;19.514;2022-09-27T00:27:15;10.30;99.90
41427;DHT22;27171;51.812;19.514;2022-09-27T00:30:16;10.40;99.90
41427;DHT22;27171;51.812;19.514;2022-09-27T00:33:17;10.30;99.90
41427;DHT22;27171;51.812;19.514;2022-09-27T00:36:19;10.30;99.90
41427;DHT22;27171;51.812;19.514;2022-09-27T00:39:21;10.40;99.90
41427;DHT22;27171;51.812;19.514;2022-09-27T00:42:22;10.40;99.90
41427;DHT22;27171;51.812;19.514;2022-09-27T00:45:23;10.40;99.90
41427;DHT22;27171;51.812;19.514;2022-09-27T00:48:28;10.40;99.90
41427;DHT22;27171;51.812;19.514;2022-09-27T00:51:33;10.40;99.90
41427;DHT22;27171;51.812;19.514;2022-09-27T00:54:39;10.40;99.90
41427;DHT22;27171;51.812;19.514;2022-09-27T00:57:42;10.40;99.90
41427;DHT22;27171;51.812;19.514;2022-09-27T01:00:50;10.30;99.90
41427;DHT22;27171;51.812;19.514;2022-09-27T01:04:13;10.30;99.90
41427;DHT22;27171;51.812;19.514;2022-09-27T01:07:15;10.30;99.90
41427;DHT22;27171;51.812;19.514;2022-09-27T01:10:17;10.30;99.90
41427;DHT22;27171;51.812;19.514;2022-09-27T01:13:24;10.30;99.90
41427;DHT22;27171;51.812;19.514;2022-09-27T01:16:39;10.30;99.90
41427;DHT22;27171;51.812;19.514;2022-09-27T01:33:36;10.40;99.90
41427;DHT22;27171;51.812;19.514;2022-09-27T01:40:32;10.40;99.90
41427;DHT22;27171;51.812;19.514;2022-09-27T01:44:03;10.40;99.90
41427;DHT22;27171;51.812;19.514;2022-09-27T01:47:19;10.40;99.90
41427;DHT22;27171;51.812;19.514;2022-09-27T01:51:31;10.40;99.90
41427;DHT22;27171;51.812;19.514;2022-09-27T01:54:16;10.40;99.90
41427;DHT22;27171;51.812;19.514;2022-09-27T01:57:41;10.40;99.90
41427;DHT22;27171;51.812;19.514;2022-09-27T02:00:52;10.50;99.90
41427;DHT22;27171;51.812;19.514;2022-09-27T02:03:57;10.50;99.90
41427;DHT22;27171;51.812;19.514;2022-09-27T02:07:23;10.50;99.90
41427;DHT22;27171;51.812;19.514;2022-09-27T02:10:35;10.60;99.90
41427;DHT22;27171;51.812;19.514;2022-09-27T02:17:49;10.60;99.90
41427;DHT22;27171;51.812;19.514;2022-09-27T02:20:57;10.60;99.90
41427;DHT22;27171;51.812;19.514;2022-09-27T02:24:01;10.60;99.90
41427;DHT22;27171;51.812;19.514;2022-09-27T02:27:19;10.60;99.90
41427;DHT22;27171;51.812;19.514;2022-09-27T02:30:22;10.60;99.90
41427;DHT22;27171;51.812;19.514;2022-09-27T02:33:39;10.60;99.90
41427;DHT22;27171;51.812;19.514;2022-09-27T02:36:43;10.60;99.90
41427;DHT22;27171;51.812;19.514;2022-09-27T02:39:44;10.60;99.90
41427;DHT22;27171;51.812;19.514;2022-09-27T02:42:46;10.60;99.90
41427;DHT22;27171;51.812;19.514;2022-09-27T03:03:36;10.50;99.90
41427;DHT22;27171;51.812;19.514;2022-09-27T03:06:42;10.50;99.90
41427;DHT22;27171;51.812;19.514;2022-09-27T03:09:51;10.50;99.90
41427;DHT22;27171;51.812;19.514;2022-09-27T03:12:52;10.50;99.90
41427;DHT22;27171;51.812;19.514;2022-09-27T03:15:54;10.50;99.90
41427;DHT22;27171;51.812;19.514;2022-09-27T03:18:55;10.50;99.90
41427;DHT22;27171;51.812;19.514;2022-09-27T03:22:14;10.50;99.90
41427;DHT22;27171;51.812;19.514;2022-09-27T03:25:15;10.50;99.90
41427;DHT22;27171;51.812;19.514;2022-09-27T03:28:17;10.50;99.90
41427;DHT22;27171;51.812;19.514;2022-09-27T03:31:19;10.50;99.90
41427;DHT22;27171;51.812;19.514;2022-09-27T03:34:40;10.50;99.90
41427;DHT22;27171;51.812;19.514;2022-09-27T03:37:41;10.50;99.90
41427;DHT22;27171;51.812;19.514;2022-09-27T03:40:43;10.50;99.90
41427;DHT22;27171;51.812;19.514;2022-09-27T03:43:44;10.40;99.90
41427;DHT22;27171;51.812;19.514;2022-09-27T03:46:46;10.40;99.90
41427;DHT22;27171;51.812;19.514;2022-09-27T03:49:47;10.40;99.90
41427;DHT22;27171;51.812;19.514;2022-09-27T03:52:48;10.50;99.90
41427;DHT22;27171;51.812;19.514;2022-09-27T03:55:49;10.40;99.90
41427;DHT22;27171;51.812;19.514;2022-09-27T03:58:50;10.40;99.90
41427;DHT22;27171;51.812;19.514;2022-09-27T04:01:52;10.40;99.90
41427;DHT22;27171;51.812;19.514;2022-09-27T04:05:13;10.30;99.90
41427;DHT22;27171;51.812;19.514;2022-09-27T04:08:14;10.30;99.90
41427;DHT22;27171;51.812;19.514;2022-09-27T04:11:16;10.30;99.90
41427;DHT22;27171;51.812;19.514;2022-09-27T04:14:19;10.20;99.90
41427;DHT22;27171;51.812;19.514;2022-09-27T04:17:41;10.20;99.90
41427;DHT22;27171;51.812;19.514;2022-09-27T04:21:00;10.20;99.90
41427;DHT22;27171;51.812;19.514;2022-09-27T04:24:01;10.20;99.90
41427;DHT22;27171;51.812;19.514;2022-09-27T04:27:03;10.20;99.90
41427;DHT22;27171;51.812;19.514;2022-09-27T04:30:05;10.20;99.90
41427;DHT22;27171;51.812;19.514;2022-09-27T04:33:25;10.20;99.90
41427;DHT22;27171;51.812;19.514;2022-09-27T04:36:44;10.20;99.90
41427;DHT22;27171;51.812;19.514;2022-09-27T04:39:51;10.10;99.90
41427;DHT22;27171;51.812;19.514;2022-09-27T04:42:53;10.10;99.90
41427;DHT22;27171;51.812;19.514;2022-09-27T04:45:55;10.20;99.90
41427;DHT22;27171;51.812;19.514;2022-09-27T04:48:59;10.10;99.90
41427;DHT22;27171;51.812;19.514;2022-09-27T04:52:02;10.10;99.90
41427;DHT22;27171;51.812;19.514;2022-09-27T04:55:04;10.10;99.90
41427;DHT22;27171;51.812;19.514;2022-09-27T04:58:07;10.10;99.90
41427;DHT22;27171;51.812;19.514;2022-09-27T05:01:08;10.10;99.90
41427;DHT22;27171;51.812;19.514;2022-09-27T05:04:28;10.10;99.90
41427;DHT22;27171;51.812;19.514;2022-09-27T05:07:29;10.10;99.90
41427;DHT22;27171;51.812;19.514;2022-09-27T05:10:37;10.00;99.90
41427;DHT22;27171;51.812;19.514;2022-09-27T05:13:38;10.00;99.90
41427;DHT22;27171;51.812;19.514;2022-09-27T05:16:39;10.00;99.90
41427;DHT22;27171;51.812;19.514;2022-09-27T05:19:58;10.10;99.90
41427;DHT22;27171;51.812;19.514;2022-09-27T05:23:07;10.10;99.90
41427;DHT22;27171;51.812;19.514;2022-09-27T05:26:08;10.10;99.90
41427;DHT22;27171;51.812;19.514;2022-09-27T05:29:09;10.10;99.90
41427;DHT22;27171;51.812;19.514;2022-09-27T05:32:12;10.10;99.90
41427;DHT22;27171;51.812;19.514;2022-09-27T05:35:14;10.20;99.90
41427;DHT22;27171;51.812;19.514;2022-09-27T05:38:15;10.20;99.90
41427;DHT22;27171;51.812;19.514;2022-09-27T05:41:21;10.30;99.90
41427;DHT22;27171;51.812;19.514;2022-09-27T05:44:22;10.30;99.90
41427;DHT22;27171;51.812;19.514;2022-09-27T05:47:35;10.40;99.90
41427;DHT22;27171;51.812;19.514;2022-09-27T05:50:37;10.40;99.90
41427;DHT22;27171;51.812;19.514;2022-09-27T05:53:38;10.50;99.90
41427;DHT22;27171;51.812;19.514;2022-09-27T05:56:42;10.50;99.90
41427;DHT22;27171;51.812;19.514;2022-09-27T06:00:02;10.60;99.90
41427;DHT22;27171;51.812;19.514;2022-09-27T06:03:16;10.60;99.90
41427;DHT22;27171;51.812;19.514;2022-09-27T06:06:36;10.60;99.90
41427;DHT22;27171;51.812;19.514;2022-09-27T06:09:39;10.70;99.90
41427;DHT22;27171;51.812;19.514;2022-09-27T06:12:41;10.80;99.90
41427;DHT22;27171;51.812;19.514;2022-09-27T06:15:52;10.90;99.90
41427;DHT22;27171;51.812;19.514;2022-09-27T06:18:54;11.00;99.90
41427;DHT22;27171;51.812;19.514;2022-09-27T06:21:55;11.10;99.90
41427;DHT22;27171;51.812;19.514;2022-09-27T06:24:59;11.10;99.90
41427;DHT22;27171;51.812;19.514;2022-09-27T06:28:04;11.20;99.90
41427;DHT22;27171;51.812;19.514;2022-09-27T06:31:10;11.30;99.90
41427;DHT22;27171;51.812;19.514;2022-09-27T06:34:30;11.30;99.90
41427;DHT22;27171;51.812;19.514;2022-09-27T06:37:31;11.50;99.90
41427;DHT22;27171;51.812;19.514;2022-09-27T06:40:32;11.50;99.90
41427;DHT22;27171;51.812;19.514;2022-09-27T06:44:05;11.50;99.90
41427;DHT22;27171;51.812;19.514;2022-09-27T06:47:09;11.60;99.90
41427;DHT22;27171;51.812;19.514;2022-09-27T06:50:36;11.70;99.90
41427;DHT22;27171;51.812;19.514;2022-09-27T06:53:39;11.80;99.90
41427;DHT22;27171;51.812;19.514;2022-09-27T06:56:40;11.90;99.90
41427;DHT22;27171;51.812;19.514;2022-09-27T06:59:42;12.00;99.90
41427;DHT22;27171;51.812;19.514;2022-09-27T07:03:01;12.10;99.90
41427;DHT22;27171;51.812;19.514;2022-09-27T07:06:21;12.10;99.90
41427;DHT22;27171;51.812;19.514;2022-09-27T07:09:42;12.20;99.90
41427;DHT22;27171;51.812;19.514;2022-09-27T07:12:43;12.40;99.90
41427;DHT22;27171;51.812;19.514;2022-09-27T07:15:45;12.40;99.90
41427;DHT22;27171;51.812;19.514;2022-09-27T07:18:49;12.50;99.90
41427;DHT22;27171;51.812;19.514;2022-09-27T07:21:50;12.60;99.90
41427;DHT22;27171;51.812;19.514;2022-09-27T07:24:51;12.70;99.90
41427;DHT22;27171;51.812;19.514;2022-09-27T07:27:53;12.70;99.90
41427;DHT22;27171;51.812;19.514;2022-09-27T07:30:54;12.80;99.90
41427;DHT22;27171;51.812;19.514;2022-09-27T07:33:56;12.90;99.90
41427;DHT22;27171;51.812;19.514;2022-09-27T07:37:01;13.00;99.90
41427;DHT22;27171;51.812;19.514;2022-09-27T07:40:05;13.00;99.90
41427;DHT22;27171;51.812;19.514;2022-09-27T07:43:07;13.10;99.90
41427;DHT22;27171;51.812;19.514;2022-09-27T07:46:08;13.20;99.90
41427;DHT22;27171;51.812;19.514;2022-09-27T07:49:30;13.20;99.90
41427;DHT22;27171;51.812;19.514;2022-09-27T07:53:03;13.30;99.90
41427;DHT22;27171;51.812;19.514;2022-09-27T07:56:16;13.40;99.90
41427;DHT22;27171;51.812;19.514;2022-09-27T07:59:18;13.50;99.90
41427;DHT22;27171;51.812;19.514;2022-09-27T08:02:19;13.60;99.90
41427;DHT22;27171;51.812;19.514;2022-09-27T08:05:22;13.60;99.90
41427;DHT22;27171;51.812;19.514;2022-09-27T08:08:24;13.60;99.90
41427;DHT22;27171;51.812;19.514;2022-09-27T08:11:27;13.70;99.90
41427;DHT22;27171;51.812;19.514;2022-09-27T08:14:29;13.80;99.90
41427;DHT22;27171;51.812;19.514;2022-09-27T08:17:33;13.80;99.90
41427;DHT22;27171;51.812;19.514;2022-09-27T08:20:51;13.90;99.90
41427;DHT22;27171;51.812;19.514;2022-09-27T08:24:03;13.90;99.90
41427;DHT22;27171;51.812;19.514;2022-09-27T08:27:27;14.00;99.90
41427;DHT22;27171;51.812;19.514;2022-09-27T08:30:32;14.10;99.90
41427;DHT22;27171;51.812;19.514;2022-09-27T08:33:35;14.20;99.90
41427;DHT22;27171;51.812;19.514;2022-09-27T08:36:36;14.30;99.90
41427;DHT22;27171;51.812;19.514;2022-09-27T08:39:37;14.50;99.90
41427;DHT22;27171;51.812;19.514;2022-09-27T08:42:55;14.60;99.90
41427;DHT22;27171;51.812;19.514;2022-09-27T08:46:26;14.70;99.90
41427;DHT22;27171;51.812;19.514;2022-09-27T08:49:36;14.90;99.90
41427;DHT22;27171;51.812;19.514;2022-09-27T08:52:44;14.90;99.90
41427;DHT22;27171;51.812;19.514;2022-09-27T08:56:01;14.90;99.90
41427;DHT22;27171;51.812;19.514;2022-09-27T08:59:16;15.00;99.90
41427;DHT22;27171;51.812;19.514;2022-09-27T09:02:23;15.00;99.90
41427;DHT22;27171;51.812;19.514;2022-09-27T09:05:30;15.00;99.90
41427;DHT22;27171;51.812;19.514;2022-09-27T09:12:03;15.20;99.90
41427;DHT22;27171;51.812;19.514;2022-09-27T09:18:55;15.20;99.90
41427;DHT22;27171;51.812;19.514;2022-09-27T09:39:37;15.50;99.90
41427;DHT22;27171;51.812;19.514;2022-09-27T09:42:50;15.60;99.90
41427;DHT22;27171;51.812;19.514;2022-09-27T09:51:05;15.70;99.90
41427;DHT22;27171;51.812;19.514;2022-09-27T09:54:35;15.80;99.90
41427;DHT22;27171;51.812;19.514;2022-09-27T09:57:53;15.90;99.90
41427;DHT22;27171;51.812;19.514;2022-09-27T10:01:13;16.10;99.90
41427;DHT22;27171;51.812;19.514;2022-09-27T10:04:26;16.10;99.90
41427;DHT22;27171;51.812;19.514;2022-09-27T10:07:31;16.10;99.90
41427;DHT22;27171;51.812;19.514;2022-09-27T10:10:34;16.10;99.90
41427;DHT22;27171;51.812;19.514;2022-09-27T10:13:54;16.20;99.90
41427;DHT22;27171;51.812;19.514;2022-09-27T10:16:58;16.20;99.90
41427;DHT22;27171;51.812;19.514;2022-09-27T10:20:02;16.30;99.90
41427;DHT22;27171;51.812;19.514;2022-09-27T10:23:15;16.40;99.90
41427;DHT22;27171;51.812;19.514;2022-09-27T10:26:36;16.50;99.90
41427;DHT22;27171;51.812;19.514;2022-09-27T10:29:41;16.60;99.90
41427;DHT22;27171;51.812;19.514;2022-09-27T10:32:52;16.60;99.90
41427;DHT22;27171;51.812;19.514;2022-09-27T10:36:25;16.70;99.90
41427;DHT22;27171;51.812;19.514;2022-09-27T10:39:27;16.90;99.90
41427;DHT22;27171;51.812;19.514;2022-09-27T10:42:34;16.90;99.90
41427;DHT22;27171;51.812;19.514;2022-09-27T10:45:36;17.00;99.90
41427;DHT22;27171;51.812;19.514;2022-09-27T10:48:43;17.10;99.90
41427;DHT22;27171;51.812;19.514;2022-09-27T10:51:49;17.10;99.90
41427;DHT22;27171;51.812;19.514;2022-09-27T10:55:00;17.10;99.90
41427;DHT22;27171;51.812;19.514;2022-09-27T10:58:06;17.10;99.90
41427;DHT22;27171;51.812;19.514;2022-09-27T11:01:16;17.10;99.90
41427;DHT22;27171;51.812;19.514;2022-09-27T11:04:36;17.20;99.90
41427;DHT22;27171;51.812;19.514;2022-09-27T11:11:04;17.40;99.90
41427;DHT22;27171;51.812;19.514;2022-09-27T11:14:22;17.40;99.90
41427;DHT22;27171;51.812;19.514;2022-09-27T11:17:31;17.50;99.90
41427;DHT22;27171;51.812;19.514;2022-09-27T11:20:52;17.60;99.90
41427;DHT22;27171;51.812;19.514;2022-09-27T11:27:41;17.70;99.90
41427;DHT22;27171;51.812;19.514;2022-09-27T11:34:36;17.70;99.90
41427;DHT22;27171;51.812;19.514;2022-09-27T11:38:41;17.70;99.90
41427;DHT22;27171;51.812;19.514;2022-09-27T12:01:49;17.60;99.90
41427;DHT22;27171;51.812;19.514;2022-09-27T12:15:29;17.70;99.90
41427;DHT22;27171;51.812;19.514;2022-09-27T12:18:38;17.80;99.90
41427;DHT22;27171;51.812;19.514;2022-09-27T12:21:45;17.90;99.90
41427;DHT22;27171;51.812;19.514;2022-09-27T12:24:47;18.10;99.90
41427;DHT22;27171;51.812;19.514;2022-09-27T12:31:41;18.30;99.90
41427;DHT22;27171;51.812;19.514;2022-09-27T12:38:17;18.40;99.90
41427;DHT22;27171;51.812;19.514;2022-09-27T12:41:21;18.50;99.90
41427;DHT22;27171;51.812;19.514;2022-09-27T12:44:44;18.40;99.90
41427;DHT22;27171;51.812;19.514;2022-09-27T12:51:35;18.60;99.90
41427;DHT22;27171;51.812;19.514;2022-09-27T12:58:16;18.60;99.90
41427;DHT22;27171;51.812;19.514;2022-09-27T13:14:24;18.20;99.90
41427;DHT22;27171;51.812;19.514;2022-09-27T13:20:46;18.10;99.90
41427;DHT22;27171;51.812;19.514;2022-09-27T13:23:56;18.10;99.90
41427;DHT22;27171;51.812;19.514;2022-09-27T13:33:47;18.20;99.90
41427;DHT22;27171;51.812;19.514;2022-09-27T13:36:54;18.30;99.90
41427;DHT22;27171;51.812;19.514;2022-09-27T13:40:22;18.40;99.90
41427;DHT22;27171;51.812;19.514;2022-09-27T13:56:56;18.40;99.90
41427;DHT22;27171;51.812;19.514;2022-09-27T14:00:00;18.20;99.90
41427;DHT22;27171;51.812;19.514;2022-09-27T14:03:33;18.10;99.90
41427;DHT22;27171;51.812;19.514;2022-09-27T14:06:42;18.00;99.90
41427;DHT22;27171;51.812;19.514;2022-09-27T14:09:48;17.90;99.90
41427;DHT22;27171;51.812;19.514;2022-09-27T14:12:55;17.80;99.90
41427;DHT22;27171;51.812;19.514;2022-09-27T14:15:59;17.80;99.90
41427;DHT22;27171;51.812;19.514;2022-09-27T14:19:03;17.70;99.90
41427;DHT22;27171;51.812;19.514;2022-09-27T14:22:24;17.60;99.90
41427;DHT22;27171;51.812;19.514;2022-09-27T14:25:31;17.50;99.90
41427;DHT22;27171;51.812;19.514;2022-09-27T14:28:40;17.40;99.90
41427;DHT22;27171;51.812;19.514;2022-09-27T14:32:12;17.30;99.90
41427;DHT22;27171;51.812;19.514;2022-09-27T14:35:29;17.10;99.90
41427;DHT22;27171;51.812;19.514;2022-09-27T14:38:31;17.00;99.90
41427;DHT22;27171;51.812;19.514;2022-09-27T14:41:35;17.00;99.90
41427;DHT22;27171;51.812;19.514;2022-09-27T14:44:42;16.90;99.90
41427;DHT22;27171;51.812;19.514;2022-09-27T14:47:46;16.80;99.90
41427;DHT22;27171;51.812;19.514;2022-09-27T14:50:56;16.70;99.90
41427;DHT22;27171;51.812;19.514;2022-09-27T14:53:58;16.60;99.90
41427;DHT22;27171;51.812;19.514;2022-09-27T14:57:00;16.50;99.90
41427;DHT22;27171;51.812;19.514;2022-09-27T15:00:17;16.40;99.90
41427;DHT22;27171;51.812;19.514;2022-09-27T15:03:25;16.30;99.90
41427;DHT22;27171;51.812;19.514;2022-09-27T15:06:27;16.30;99.90
41427;DHT22;27171;51.812;19.514;2022-09-27T15:09:28;16.20;99.90
41427;DHT22;27171;51.812;19.514;2022-09-27T15:12:31;16.10;99.90
41427;DHT22;27171;51.812;19.514;2022-09-27T15:15:35;16.00;99.90
41427;DHT22;27171;51.812;19.514;2022-09-27T15:21:38;15.90;99.90
41427;DHT22;27171;51.812;19.514;2022-09-27T15:24:43;15.80;99.90
41427;DHT22;27171;51.812;19.514;2022-09-27T15:27:47;15.80;99.90
41427;DHT22;27171;51.812;19.514;2022-09-27T15:30:53;15.70;99.90
41427;DHT22;27171;51.812;19.514;2022-09-27T15:33:56;15.70;99.90
41427;DHT22;27171;51.812;19.514;2022-09-27T15:36:58;15.60;99.90
41427;DHT22;27171;51.812;19.514;2022-09-27T15:43:20;15.50;99.90
41427;DHT22;27171;51.812;19.514;2022-09-27T15:49:27;15.40;99.90
41427;DHT22;27171;51.812;19.514;2022-09-27T15:52:42;15.30;99.90
41427;DHT22;27171;51.812;19.514;2022-09-27T15:55:44;15.20;99.90
41427;DHT22;27171;51.812;19.514;2022-09-27T15:58:45;15.10;99.90
41427;DHT22;27171;51.812;19.514;2022-09-27T16:01:46;15.10;99.90
41427;DHT22;27171;51.812;19.514;2022-09-27T16:04:47;15.00;99.90
41427;DHT22;27171;51.812;19.514;2022-09-27T16:07:50;14.90;99.90
41427;DHT22;27171;51.812;19.514;2022-09-27T16:10:53;14.80;99.90
41427;DHT22;27171;51.812;19.514;2022-09-27T16:13:54;14.70;99.90
41427;DHT22;27171;51.812;19.514;2022-09-27T16:16:56;14.70;99.90
41427;DHT22;27171;51.812;19.514;2022-09-27T16:19:57;14.60;99.90
41427;DHT22;27171;51.812;19.514;2022-09-27T16:22:58;14.60;99.90
41427;DHT22;27171;51.812;19.514;2022-09-27T16:25:59;14.50;99.90
41427;DHT22;27171;51.812;19.514;2022-09-27T16:29:00;14.50;99.90
41427;DHT22;27171;51.812;19.514;2022-09-27T16:32:02;14.40;99.90
41427;DHT22;27171;51.812;19.514;2022-09-27T16:35:03;14.40;99.90
41427;DHT22;27171;51.812;19.514;2022-09-27T16:38:04;14.40;99.90
41427;DHT22;27171;51.812;19.514;2022-09-27T16:41:05;14.30;99.90
41427;DHT22;27171;51.812;19.514;2022-09-27T16:44:08;14.20;99.90
41427;DHT22;27171;51.812;19.514;2022-09-27T16:47:09;14.10;99.90
41427;DHT22;27171;51.812;19.514;2022-09-27T16:50:14;13.90;99.90
41427;DHT22;27171;51.812;19.514;2022-09-27T16:53:15;13.70;99.90
41427;DHT22;27171;51.812;19.514;2022-09-27T16:56:16;13.50;99.90
41427;DHT22;27171;51.812;19.514;2022-09-27T16:59:17;13.30;99.90
41427;DHT22;27171;51.812;19.514;2022-09-27T17:02:18;13.20;99.90
41427;DHT22;27171;51.812;19.514;2022-09-27T17:05:19;13.10;99.90
41427;DHT22;27171;51.812;19.514;2022-09-27T17:08:24;13.00;99.90
41427;DHT22;27171;51.812;19.514;2022-09-27T17:11:26;12.90;99.90
41427;DHT22;27171;51.812;19.514;2022-09-27T17:14:27;12.80;99.90
41427;DHT22;27171;51.812;19.514;2022-09-27T17:17:28;12.90;99.90
41427;DHT22;27171;51.812;19.514;2022-09-27T17:20:29;12.80;99.90
41427;DHT22;27171;51.812;19.514;2022-09-27T17:23:31;12.70;99.90
41427;DHT22;27171;51.812;19.514;2022-09-27T17:26:33;12.70;99.90
41427;DHT22;27171;51.812;19.514;2022-09-27T17:29:34;12.60;99.90
41427;DHT22;27171;51.812;19.514;2022-09-27T17:32:35;12.40;99.90
41427;DHT22;27171;51.812;19.514;2022-09-27T17:35:36;12.20;99.90
41427;DHT22;27171;51.812;19.514;2022-09-27T17:38:38;12.10;99.90
41427;DHT22;27171;51.812;19.514;2022-09-27T17:41:39;12.00;99.90
41427;DHT22;27171;51.812;19.514;2022-09-27T17:44:41;12.00;99.90
41427;DHT22;27171;51.812;19.514;2022-09-27T17:47:42;11.90;99.90
41427;DHT22;27171;51.812;19.514;2022-09-27T17:50:45;11.80;99.90
41427;DHT22;27171;51.812;19.514;2022-09-27T17:53:46;11.80;99.90
41427;DHT22;27171;51.812;19.514;2022-09-27T17:56:48;11.80;99.90
41427;DHT22;27171;51.812;19.514;2022-09-27T17:59:50;11.80;99.90
41427;DHT22;27171;51.812;19.514;2022-09-27T18:02:51;11.80;99.90
41427;DHT22;27171;51.812;19.514;2022-09-27T18:05:52;11.70;99.90
41427;DHT22;27171;51.812;19.514;2022-09-27T18:08:54;11.70;99.90
41427;DHT22;27171;51.812;19.514;2022-09-27T18:11:56;11.60;99.90
41427;DHT22;27171;51.812;19.514;2022-09-27T18:14:57;11.60;99.90
41427;DHT22;27171;51.812;19.514;2022-09-27T18:17:58;11.60;99.90
41427;DHT22;27171;51.812;19.514;2022-09-27T18:21:01;11.50;99.90
41427;DHT22;27171;51.812;19.514;2022-09-27T18:24:02;11.50;99.90
41427;DHT22;27171;51.812;19.514;2022-09-27T18:27:03;11.50;99.90
41427;DHT22;27171;51.812;19.514;2022-09-27T18:30:05;11.40;99.90
41427;DHT22;27171;51.812;19.514;2022-09-27T18:33:06;11.40;99.90
41427;DHT22;27171;51.812;19.514;2022-09-27T18:36:18;11.40;99.90
41427;DHT22;27171;51.812;19.514;2022-09-27T18:39:20;11.30;99.90
41427;DHT22;27171;51.812;19.514;2022-09-27T18:42:21;11.30;99.90
41427;DHT22;27171;51.812;19.514;2022-09-27T18:45:22;11.30;99.90
41427;DHT22;27171;51.812;19.514;2022-09-27T18:48:24;11.30;99.90
41427;DHT22;27171;51.812;19.514;2022-09-27T18:51:26;11.30;99.90
41427;DHT22;27171;51.812;19.514;2022-09-27T18:54:28;11.30;99.90
41427;DHT22;27171;51.812;19.514;2022-09-27T18:57:29;11.30;99.90
41427;DHT22;27171;51.812;19.514;2022-09-27T19:00:30;11.30;99.90
41427;DHT22;27171;51.812;19.514;2022-09-27T19:03:32;11.40;99.90
41427;DHT22;27171;51.812;19.514;2022-09-27T19:06:33;11.40;99.90
41427;DHT22;27171;51.812;19.514;2022-09-27T19:09:35;11.40;99.90
41427;DHT22;27171;51.812;19.514;2022-09-27T19:12:36;11.40;99.90
41427;DHT22;27171;51.812;19.514;2022-09-27T19:15:37;11.40;99.90
41427;DHT22;27171;51.812;19.514;2022-09-27T19:18:39;11.30;99.90
41427;DHT22;27171;51.812;19.514;2022-09-27T19:21:40;11.30;99.90
41427;DHT22;27171;51.812;19.514;2022-09-27T19:24:41;11.30;99.90
41427;DHT22;27171;51.812;19.514;2022-09-27T19:27:42;11.30;99.90
41427;DHT22;27171;51.812;19.514;2022-09-27T19:30:44;11.30;99.90
41427;DHT22;27171;51.812;19.514;2022-09-27T19:33:45;11.20;99.90
41427;DHT22;27171;51.812;19.514;2022-09-27T19:36:46;11.20;99.90
41427;DHT22;27171;51.812;19.514;2022-09-27T19:39:48;11.20;99.90
41427;DHT22;27171;51.812;19.514;2022-09-27T19:42:52;11.20;99.90
41427;DHT22;27171;51.812;19.514;2022-09-27T19:45:54;11.20;99.90
41427;DHT22;27171;51.812;19.514;2022-09-27T19:48:55;11.20;99.90
41427;DHT22;27171;51.812;19.514;2022-09-27T19:51:56;11.20;99.90
41427;DHT22;27171;51.812;19.514;2022-09-27T19:54:57;11.10;99.90
41427;DHT22;27171;51.812;19.514;2022-09-27T19:57:58;11.20;99.90
41427;DHT22;27171;51.812;19.514;2022-09-27T20:01:04;11.20;99.90
41427;DHT22;27171;51.812;19.514;2022-09-27T20:04:06;11.10;99.90
41427;DHT22;27171;51.812;19.514;2022-09-27T20:07:07;11.10;99.90
41427;DHT22;27171;51.812;19.514;2022-09-27T20:10:09;11.10;99.90
41427;DHT22;27171;51.812;19.514;2022-09-27T20:13:10;11.10;99.90
41427;DHT22;27171;51.812;19.514;2022-09-27T20:16:12;11.10;99.90
41427;DHT22;27171;51.812;19.514;2022-09-27T20:19:13;11.10;99.90
41427;DHT22;27171;51.812;19.514;2022-09-27T20:22:14;11.00;99.90
41427;DHT22;27171;51.812;19.514;2022-09-27T20:25:15;11.00;99.90
41427;DHT22;27171;51.812;19.514;2022-09-27T20:28:16;11.00;99.90
41427;DHT22;27171;51.812;19.514;2022-09-27T20:31:21;11.00;99.90
41427;DHT22;27171;51.812;19.514;2022-09-27T20:34:23;11.00;99.90
41427;DHT22;27171;51.812;19.514;2022-09-27T20:37:24;11.00;99.90
41427;DHT22;27171;51.812;19.514;2022-09-27T20:40:25;11.00;99.90
41427;DHT22;27171;51.812;19.514;2022-09-27T20:43:26;11.00;99.90
41427;DHT22;27171;51.812;19.514;2022-09-27T20:46:27;11.00;99.90
41427;DHT22;27171;51.812;19.514;2022-09-27T20:49:28;11.00;99.90
41427;DHT22;27171;51.812;19.514;2022-09-27T20:52:29;11.00;99.90
41427;DHT22;27171;51.812;19.514;2022-09-27T20:55:31;10.90;99.90
41427;DHT22;27171;51.812;19.514;2022-09-27T20:58:32;11.00;99.90
41427;DHT22;27171;51.812;19.514;2022-09-27T21:01:33;10.90;99.90
41427;DHT22;27171;51.812;19.514;2022-09-27T21:04:34;10.90;99.90
41427;DHT22;27171;51.812;19.514;2022-09-27T21:07:35;10.90;99.90
41427;DHT22;27171;51.812;19.514;2022-09-27T21:10:37;11.00;99.90
41427;DHT22;27171;51.812;19.514;2022-09-27T21:13:38;11.00;99.90
41427;DHT22;27171;51.812;19.514;2022-09-27T21:16:40;11.00;99.90
41427;DHT22;27171;51.812;19.514;2022-09-27T21:19:41;11.00;99.90
41427;DHT22;27171;51.812;19.514;2022-09-27T21:22:42;11.00;99.90
41427;DHT22;27171;51.812;19.514;2022-09-27T21:25:43;11.00;99.90
41427;DHT22;27171;51.812;19.514;2022-09-27T21:28:55;11.00;99.90
41427;DHT22;27171;51.812;19.514;2022-09-27T21:31:57;11.00;99.90
41427;DHT22;27171;51.812;19.514;2022-09-27T21:34:58;11.00;99.90
41427;DHT22;27171;51.812;19.514;2022-09-27T21:37:59;11.00;99.90
41427;DHT22;27171;51.812;19.514;2022-09-27T21:41:01;11.00;99.90
41427;DHT22;27171;51.812;19.514;2022-09-27T21:44:04;11.00;99.90
41427;DHT22;27171;51.812;19.514;2022-09-27T21:47:05;11.00;99.90
41427;DHT22;27171;51.812;19.514;2022-09-27T21:50:06;11.00;99.90
41427;DHT22;27171;51.812;19.514;2022-09-27T21:53:08;11.00;99.90
41427;DHT22;27171;51.812;19.514;2022-09-27T21:56:10;11.00;99.90
41427;DHT22;27171;51.812;19.514;2022-09-27T21:59:13;11.00;99.90
41427;DHT22;27171;51.812;19.514;2022-09-27T22:02:17;11.00;99.90
41427;DHT22;27171;51.812;19.514;2022-09-27T22:05:18;11.00;99.90
41427;DHT22;27171;51.812;19.514;2022-09-27T22:08:19;11.00;99.90